createdAt,value
2023-02-25T00:02:25.085Z,99256.59
2023-02-25T00:05:31.702Z,99253.66
2023-02-25T00:08:34.846Z,99257.66
2023-02-25T00:11:36.685Z,99251.53
2023-02-25T00:14:38.359Z,99263.88
2023-02-25T00:17:40.189Z,99271.53
2023-02-25T00:20:43.334Z,99272.78
2023-02-25T00:23:46.790Z,99266.78
2023-02-25T00:26:48.559Z,99267.84
2023-02-25T00:29:51.945Z,99261.41
2023-02-25T00:32:53.868Z,99269.00
2023-02-25T00:35:57.183Z,99273.28
2023-02-25T00:38:59.088Z,99269.75
2023-02-25T00:42:00.763Z,99270.03
2023-02-25T00:45:02.786Z,99280.81
2023-02-25T00:48:04.933Z,99281.25
2023-02-25T00:51:09.657Z,99287.00
2023-02-25T00:54:11.409Z,99284.78
2023-02-25T00:57:13.109Z,99290.38
2023-02-25T01:00:18.311Z,99304.09
2023-02-25T01:03:20.065Z,99304.00
2023-02-25T01:06:24.543Z,99302.28
2023-02-25T01:09:26.745Z,99302.88
2023-02-25T01:12:28.613Z,99314.19
2023-02-25T01:15:30.843Z,99310.56
2023-02-25T01:18:34.806Z,99305.13
2023-02-25T01:21:41.947Z,99306.19
2023-02-25T01:24:43.780Z,99301.44
2023-02-25T01:27:45.556Z,99285.47
2023-02-25T01:30:47.504Z,99276.25
2023-02-25T01:33:49.278Z,99273.94
2023-02-25T01:36:52.736Z,99282.19
2023-02-25T01:39:54.495Z,99296.81
2023-02-25T01:42:56.248Z,99294.53
2023-02-25T01:45:58.072Z,99294.53
2023-02-25T01:49:00.451Z,99290.13
2023-02-25T01:52:08.466Z,99288.91
2023-02-25T01:55:10.890Z,99294.44
2023-02-25T01:58:13.030Z,99289.56
2023-02-25T02:01:20.269Z,99292.31
2023-02-25T02:04:22.762Z,99287.13
2023-02-25T02:07:26.009Z,99284.88
2023-02-25T02:10:27.867Z,99291.28
2023-02-25T02:13:31.677Z,99284.22
2023-02-25T02:16:50.178Z,99288.97
2023-02-25T02:20:13.233Z,99298.78
2023-02-25T02:23:30.633Z,99290.84
2023-02-25T02:26:49.145Z,99296.63
2023-02-25T02:30:17.399Z,99295.88
2023-02-25T02:33:29.307Z,99307.00
2023-02-25T02:36:41.385Z,99302.41
2023-02-25T02:39:54.639Z,99311.25
2023-02-25T02:43:06.899Z,99306.84
2023-02-25T02:46:15.790Z,99308.03
2023-02-25T02:49:27.032Z,99304.69
2023-02-25T02:52:31.704Z,99313.22
2023-02-25T02:55:37.575Z,99301.31
2023-02-25T02:58:44.365Z,99302.56
2023-02-25T03:01:51.496Z,99310.22
2023-02-25T03:05:02.130Z,99304.09
2023-02-25T03:08:07.932Z,99296.00
2023-02-25T03:11:11.579Z,99297.66
2023-02-25T03:14:14.667Z,99309.00
2023-02-25T03:17:21.652Z,99315.84
2023-02-25T03:20:28.349Z,99301.19
2023-02-25T03:23:38.277Z,99318.13
2023-02-25T03:26:42.663Z,99311.84
2023-02-25T03:29:45.177Z,99313.38
2023-02-25T03:32:50.080Z,99315.97
2023-02-25T03:35:56.159Z,99317.81
2023-02-25T03:39:02.730Z,99320.41
2023-02-25T03:42:06.228Z,99327.72
2023-02-25T03:45:13.512Z,99329.28
2023-02-25T03:48:19.038Z,99330.47
2023-02-25T03:51:29.334Z,99332.97
2023-02-25T03:54:31.087Z,99338.09
2023-02-25T03:57:36.784Z,99335.94
2023-02-25T04:00:42.913Z,99337.47
2023-02-25T04:03:44.801Z,99335.50
2023-02-25T04:06:49.122Z,99339.34
2023-02-25T04:09:51.362Z,99344.34
2023-02-25T04:12:54.077Z,99345.25
2023-02-25T04:15:56.529Z,99350.00
2023-02-25T04:18:59.288Z,99357.75
2023-02-25T04:22:02.396Z,99361.72
2023-02-25T04:25:05.204Z,99356.78
2023-02-25T04:28:07.112Z,99375.56
2023-02-25T04:31:09.235Z,99371.81
2023-02-25T04:34:11.108Z,99363.72
2023-02-25T04:37:14.415Z,99375.59
2023-02-25T04:40:18.973Z,99366.59
2023-02-25T04:43:23.892Z,99366.75
2023-02-25T04:46:26.792Z,99372.38
2023-02-25T04:49:28.804Z,99360.09
2023-02-25T04:52:31.811Z,99357.66
2023-02-25T04:55:36.063Z,99361.00
2023-02-25T04:58:38.800Z,99354.94
2023-02-25T05:01:41.022Z,99343.22
2023-02-25T05:04:43.261Z,99340.91
2023-02-25T05:07:46.503Z,99358.28
2023-02-25T05:10:48.621Z,99344.84
2023-02-25T05:13:55.599Z,99347.81
2023-02-25T05:16:57.435Z,99349.47
2023-02-25T05:19:59.197Z,99350.28
2023-02-25T05:23:04.997Z,99337.59
2023-02-25T05:26:07.498Z,99346.13
2023-02-25T05:29:09.832Z,99354.66
2023-02-25T05:32:12.055Z,99356.50
2023-02-25T05:35:14.260Z,99364.94
2023-02-25T05:38:17.349Z,99361.50
2023-02-25T05:41:19.231Z,99365.81
2023-02-25T05:44:21.025Z,99358.94
2023-02-25T05:47:24.976Z,99354.03
2023-02-25T05:50:28.410Z,99368.56
2023-02-25T05:53:31.622Z,99368.56
2023-02-25T05:56:33.408Z,99361.22
2023-02-25T05:59:36.726Z,99356.63
2023-02-25T06:02:39.199Z,99357.22
2023-02-25T06:05:41.825Z,99362.13
2023-02-25T06:08:46.932Z,99349.91
2023-02-25T06:11:49.197Z,99352.16
2023-02-25T06:14:51.347Z,99356.63
2023-02-25T06:17:53.215Z,99361.50
2023-02-25T06:20:54.974Z,99359.06
2023-02-25T06:23:58.329Z,99362.38
2023-02-25T06:27:00.513Z,99368.47
2023-02-25T06:30:04.246Z,99377.22
2023-02-25T06:33:06.107Z,99374.38
2023-02-25T06:36:08.673Z,99370.13
2023-02-25T06:39:11.724Z,99366.13
2023-02-25T06:42:13.795Z,99388.63
2023-02-25T06:45:15.816Z,99400.66
2023-02-25T06:48:17.654Z,99397.00
2023-02-25T06:51:19.336Z,99399.03
2023-02-25T06:54:22.494Z,99401.63
2023-02-25T06:57:24.444Z,99400.44
2023-02-25T07:00:26.520Z,99401.53
2023-02-25T07:03:28.324Z,99396.66
2023-02-25T07:06:30.378Z,99416.34
2023-02-25T07:09:33.595Z,99412.56
2023-02-25T07:12:35.363Z,99416.94
2023-02-25T07:15:37.236Z,99424.09
2023-02-25T07:18:39.261Z,99428.88
2023-02-25T07:21:40.973Z,99427.63
2023-02-25T07:24:45.307Z,99429.03
2023-02-25T07:27:47.240Z,99429.78
2023-02-25T07:30:49.155Z,99428.88
2023-02-25T07:33:51.297Z,99431.50
2023-02-25T07:36:53.274Z,99433.81
2023-02-25T07:40:02.449Z,99432.59
2023-02-25T07:43:04.276Z,99429.19
2023-02-25T07:46:06.937Z,99437.94
2023-02-25T07:49:08.847Z,99439.88
2023-02-25T07:52:10.616Z,99440.19
2023-02-25T07:55:14.168Z,99446.34
2023-02-25T07:58:16.033Z,99436.22
2023-02-25T08:01:23.678Z,99437.94
2023-02-25T08:04:26.226Z,99436.28
2023-02-25T08:07:29.382Z,99436.47
2023-02-25T08:10:32.734Z,99439.53
2023-02-25T08:13:35.125Z,99445.75
2023-02-25T08:16:37.719Z,99439.19
2023-02-25T08:19:39.723Z,99440.38
2023-02-25T08:22:41.652Z,99445.75
2023-02-25T08:25:44.869Z,99444.69
2023-02-25T08:28:47.040Z,99449.25
2023-02-25T08:31:50.599Z,99455.94
2023-02-25T08:34:52.873Z,99441.16
2023-02-25T08:37:54.899Z,99442.94
2023-02-25T08:41:00.354Z,99439.75
2023-02-25T08:44:02.284Z,99436.34
2023-02-25T08:47:05.357Z,99433.28
2023-02-25T08:50:08.266Z,99434.75
2023-02-25T08:53:10.335Z,99439.94
2023-02-25T08:56:16.309Z,99443.00
2023-02-25T08:59:18.111Z,99450.06
2023-02-25T09:02:19.914Z,99442.47
2023-02-25T09:05:24.138Z,99451.41
2023-02-25T09:08:25.815Z,99445.16
2023-02-25T09:11:28.946Z,99449.56
2023-02-25T09:14:31.020Z,99445.84
2023-02-25T09:17:33.046Z,99443.69
2023-02-25T09:20:34.821Z,99457.94
2023-02-25T09:23:36.626Z,99469.19
2023-02-25T09:26:39.811Z,99456.25
2023-02-25T09:29:41.709Z,99459.50
2023-02-25T09:32:45.414Z,99461.88
2023-02-25T09:35:47.405Z,99449.69
2023-02-25T09:38:50.523Z,99458.31
2023-02-25T09:41:57.805Z,99452.09
2023-02-25T09:45:02.422Z,99451.91
2023-02-25T09:48:12.938Z,99445.81
2023-02-25T09:51:20.904Z,99442.63
2023-02-25T09:54:29.993Z,99450.75
2023-02-25T09:57:41.514Z,99436.03
2023-02-25T10:00:46.403Z,99444.00
2023-02-25T10:03:54.325Z,99440.47
2023-02-25T10:07:01.512Z,99439.56
2023-02-25T10:10:09.144Z,99441.84
2023-02-25T10:13:26.142Z,99449.06
2023-02-25T10:16:42.963Z,99438.78
2023-02-25T10:20:00.399Z,99437.28
2023-02-25T10:23:14.711Z,99447.66
2023-02-25T10:26:20.545Z,99440.50
2023-02-25T10:29:28.392Z,99439.72
2023-02-25T10:32:34.121Z,99438.34
2023-02-25T10:35:39.498Z,99432.19
2023-02-25T10:38:47.168Z,99437.13
2023-02-25T10:41:49.392Z,99432.66
2023-02-25T10:44:54.738Z,99432.81
2023-02-25T10:48:06.626Z,99434.03
2023-02-25T10:51:12.433Z,99428.38
2023-02-25T10:54:14.386Z,99439.25
2023-02-25T10:57:19.002Z,99438.78
2023-02-25T11:00:27.349Z,99441.56
2023-02-25T11:03:31.078Z,99435.41
2023-02-25T11:06:35.436Z,99421.94
2023-02-25T11:09:37.320Z,99432.00
2023-02-25T11:12:43.055Z,99437.53
2023-02-25T11:15:46.886Z,99445.66
2023-02-25T11:18:56.630Z,99442.91
2023-02-25T11:22:01.402Z,99433.47
2023-02-25T11:25:07.343Z,99434.19
2023-02-25T11:28:22.065Z,99434.91
2023-02-25T11:31:33.239Z,99430.50
2023-02-25T11:34:44.694Z,99434.50
2023-02-25T11:37:48.247Z,99444.91
2023-02-25T11:40:50.384Z,99439.06
2023-02-25T11:43:53.880Z,99433.09
2023-02-25T11:47:03.312Z,99429.41
2023-02-25T11:50:20.642Z,99426.97
2023-02-25T11:53:27.908Z,99416.19
2023-02-25T11:56:32.081Z,99410.91
2023-02-25T11:59:37.867Z,99416.59
2023-02-25T12:02:51.585Z,99398.25
2023-02-25T12:06:09.401Z,99398.13
2023-02-25T12:09:45.038Z,99394.13
2023-02-25T12:13:15.195Z,99381.53
2023-02-25T12:16:52.622Z,99393.56
2023-02-25T12:20:33.530Z,99390.16
2023-02-25T12:24:16.316Z,99380.13
2023-02-25T12:27:51.194Z,99383.94
2023-02-25T12:31:13.720Z,99369.91
2023-02-25T12:34:46.623Z,99373.84
2023-02-25T12:38:37.724Z,99376.94
2023-02-25T12:41:46.702Z,99375.34
2023-02-25T12:45:15.244Z,99378.44
2023-02-25T12:49:02.624Z,99377.06
2023-02-25T12:52:18.812Z,99368.94
2023-02-25T12:55:36.795Z,99376.25
2023-02-25T12:58:55.865Z,99370.63
2023-02-25T13:02:22.433Z,99379.53
2023-02-25T13:05:55.729Z,99373.31
2023-02-25T13:09:11.972Z,99385.69
2023-02-25T13:12:36.142Z,99398.03
2023-02-25T13:16:01.242Z,99409.16
2023-02-25T13:19:20.927Z,99412.00
2023-02-25T13:22:40.863Z,99417.28
2023-02-25T13:26:02.495Z,99422.06
2023-02-25T13:29:18.843Z,99428.28
2023-02-25T13:32:32.703Z,99419.16
2023-02-25T13:35:45.054Z,99418.91
2023-02-25T13:39:08.979Z,99416.50
2023-02-25T13:42:30.858Z,99410.69
2023-02-25T13:45:50.535Z,99408.28
2023-02-25T13:49:30.445Z,99409.06
2023-02-25T13:52:43.495Z,99403.53
2023-02-25T13:56:10.205Z,99396.69
2023-02-25T13:59:22.301Z,99393.94
2023-02-25T14:02:46.473Z,99390.53
2023-02-25T14:06:03.089Z,99402.66
2023-02-25T14:09:28.395Z,99395.66
2023-02-25T14:12:46.235Z,99400.28
2023-02-25T14:16:01.095Z,99408.16
2023-02-25T14:19:20.632Z,99410.06
2023-02-25T14:22:36.547Z,99410.88
2023-02-25T14:26:08.181Z,99405.66
2023-02-25T14:29:18.936Z,99411.72
2023-02-25T14:32:37.700Z,99400.13
2023-02-25T14:35:51.997Z,99407.38
2023-02-25T14:39:20.395Z,99402.25
2023-02-25T14:42:55.701Z,99403.94
2023-02-25T14:46:04.595Z,99401.28
2023-02-25T14:49:15.075Z,99405.19
2023-02-25T14:52:33.902Z,99417.63
2023-02-25T14:56:23.839Z,99414.53
2023-02-25T14:59:55.179Z,99426.19
2023-02-25T15:03:22.237Z,99423.53
2023-02-25T15:06:36.539Z,99435.38
2023-02-25T15:10:10.137Z,99433.84
2023-02-25T15:13:50.758Z,99449.66
2023-02-25T15:17:40.374Z,99448.66
2023-02-25T15:20:45.279Z,99439.19
2023-02-25T15:23:50.858Z,99438.09
2023-02-25T15:26:53.850Z,99441.69
2023-02-25T15:29:59.292Z,99431.22
2023-02-25T15:33:21.909Z,99480.75
2023-02-25T15:36:40.770Z,99527.25
2023-02-25T15:39:51.725Z,99555.16
2023-02-25T15:42:57.060Z,99557.38
2023-02-25T15:46:37.340Z,99578.34
2023-02-25T15:49:46.299Z,99584.09
2023-02-25T15:52:56.539Z,99585.91
2023-02-25T15:56:37.668Z,99574.28
2023-02-25T15:59:45.007Z,99565.28
2023-02-25T16:02:58.378Z,99580.28
2023-02-25T16:06:03.447Z,99578.91
2023-02-25T16:09:10.780Z,99581.38
2023-02-25T16:12:14.949Z,99591.41
2023-02-25T16:15:25.809Z,99582.66
2023-02-25T16:18:34.571Z,99592.41
2023-02-25T16:21:40.530Z,99586.84
2023-02-25T16:24:47.246Z,99583.00
2023-02-25T16:27:57.460Z,99593.28
2023-02-25T16:31:10.629Z,99585.00
2023-02-25T16:34:19.055Z,99603.69
2023-02-25T16:37:28.807Z,99612.56
2023-02-25T16:40:34.936Z,99614.44
2023-02-25T16:43:39.190Z,99620.00
2023-02-25T16:46:41.730Z,99621.09
2023-02-25T16:49:47.192Z,99623.66
2023-02-25T16:52:50.430Z,99628.09
2023-02-25T16:55:58.204Z,99631.63
2023-02-25T16:59:05.056Z,99647.53
2023-02-25T17:02:23.256Z,99650.16
2023-02-25T17:05:30.893Z,99651.63
2023-02-25T17:08:33.250Z,99659.94
2023-02-25T17:11:35.256Z,99662.72
2023-02-25T17:14:37.373Z,99669.94
2023-02-25T17:17:43.109Z,99675.84
2023-02-25T17:20:46.711Z,99679.00
2023-02-25T17:23:49.291Z,99679.00
2023-02-25T17:26:53.442Z,99691.16
2023-02-25T17:29:55.675Z,99694.16
2023-02-25T17:32:59.108Z,99692.09
2023-02-25T17:36:07.774Z,99700.63
2023-02-25T17:39:15.110Z,99700.78
2023-02-25T17:42:34.540Z,99708.38
2023-02-25T17:45:48.134Z,99708.00
2023-02-25T17:48:52.892Z,99708.38
2023-02-25T17:51:58.680Z,99715.97
2023-02-25T17:55:07.022Z,99712.44
2023-02-25T17:58:22.753Z,99705.06
2023-02-25T18:01:29.610Z,99710.59
2023-02-25T18:04:35.041Z,99712.59
2023-02-25T18:07:40.071Z,99718.53
2023-02-25T18:10:57.296Z,99722.78
2023-02-25T18:14:02.054Z,99729.81
2023-02-25T18:17:13.926Z,99730.19
2023-02-25T18:20:27.778Z,99744.63
2023-02-25T18:23:32.022Z,99735.38
2023-02-25T18:26:34.250Z,99742.91
2023-02-25T18:29:36.173Z,99748.22
2023-02-25T18:32:40.568Z,99742.47
2023-02-25T18:35:45.749Z,99760.25
2023-02-25T18:38:50.316Z,99758.53
2023-02-25T18:41:52.314Z,99762.22
2023-02-25T18:44:54.113Z,99775.59
2023-02-25T18:47:56.993Z,99776.91
2023-02-25T18:50:59.193Z,99776.31
2023-02-25T18:54:02.427Z,99774.13
2023-02-25T18:57:13.433Z,99794.50
2023-02-25T19:00:17.927Z,99795.41
2023-02-25T19:03:28.195Z,99802.84
2023-02-25T19:06:31.899Z,99803.22
2023-02-25T19:09:34.994Z,99805.06
2023-02-25T19:12:37.180Z,99806.38
2023-02-25T19:15:38.945Z,99814.88
2023-02-25T19:18:42.775Z,99818.22
2023-02-25T19:21:44.507Z,99822.44
2023-02-25T19:24:48.741Z,99820.41
2023-02-25T19:27:51.861Z,99830.91
2023-02-25T19:30:53.618Z,99832.41
2023-02-25T19:33:55.570Z,99826.84
2023-02-25T19:36:57.321Z,99844.38
2023-02-25T19:40:00.475Z,99846.34
2023-02-25T19:43:04.647Z,99848.00
2023-02-25T19:46:07.873Z,99858.38
2023-02-25T19:49:09.731Z,99861.69
2023-02-25T19:52:12.167Z,99870.00
2023-02-25T19:55:15.506Z,99877.19
2023-02-25T19:58:19.579Z,99877.91
2023-02-25T20:01:21.581Z,99882.53
2023-02-25T20:04:28.847Z,99886.25
2023-02-25T20:07:31.783Z,99898.66
2023-02-25T20:10:35.125Z,99905.44
2023-02-25T20:13:38.346Z,99907.75
2023-02-25T20:16:42.214Z,99916.56
2023-02-25T20:19:44.148Z,99914.78
2023-02-25T20:22:46.114Z,99913.38
2023-02-25T20:25:49.246Z,99922.78
2023-02-25T20:28:53.999Z,99919.84
2023-02-25T20:31:56.652Z,99925.03
2023-02-25T20:34:59.068Z,99929.28
2023-02-25T20:38:13.877Z,99921.66
2023-02-25T20:41:18.268Z,99928.28
2023-02-25T20:44:20.279Z,99920.72
2023-02-25T20:47:23.860Z,99931.66
2023-02-25T20:50:28.230Z,99925.13
2023-02-25T20:53:32.064Z,99944.38
2023-02-25T20:56:36.556Z,99946.28
2023-02-25T20:59:38.414Z,99950.38
2023-02-25T21:02:40.324Z,99954.28
2023-02-25T21:05:42.126Z,99957.25
2023-02-25T21:08:43.937Z,99957.47
2023-02-25T21:11:47.151Z,99961.41
2023-02-25T21:14:49.087Z,99966.81
2023-02-25T21:17:50.735Z,99968.56
2023-02-25T21:20:57.847Z,99976.50
2023-02-25T21:23:59.524Z,99974.69
2023-02-25T21:27:03.218Z,99983.16
2023-02-25T21:30:06.486Z,99978.16
2023-02-25T21:33:08.702Z,99972.16
2023-02-25T21:36:11.571Z,99978.75
2023-02-25T21:39:13.329Z,99978.56
2023-02-25T21:42:16.496Z,99976.59
2023-02-25T21:45:18.509Z,99978.34
2023-02-25T21:48:20.794Z,99972.59
2023-02-25T21:51:24.722Z,99980.53
2023-02-25T21:54:26.606Z,99975.06
2023-02-25T21:57:29.975Z,99977.84
2023-02-25T22:00:32.116Z,99995.16
2023-02-25T22:03:36.703Z,99995.16
2023-02-25T22:06:38.581Z,99994.72
2023-02-25T22:09:40.575Z,99997.75
2023-02-25T22:12:44.001Z,99998.78
2023-02-25T22:15:47.178Z,100003.31
2023-02-25T22:18:58.624Z,100006.63
2023-02-25T22:22:03.273Z,100009.56
2023-02-25T22:25:05.890Z,100008.25
2023-02-25T22:28:09.252Z,100011.53
2023-02-25T22:31:12.332Z,100002.88
2023-02-25T22:34:14.456Z,100001.13
2023-02-25T22:37:16.460Z,100010.38
2023-02-25T22:40:18.432Z,100012.56
2023-02-25T22:43:21.640Z,100015.25
2023-02-25T22:46:26.416Z,100011.50
2023-02-25T22:49:28.513Z,100023.75
2023-02-25T22:52:30.528Z,100021.03
2023-02-25T22:55:33.050Z,100026.09
2023-02-25T22:58:40.661Z,100020.50
2023-02-25T23:01:42.449Z,100025.19
2023-02-25T23:04:44.439Z,100023.09
2023-02-25T23:07:46.226Z,100023.75
2023-02-25T23:10:48.222Z,100036.41
2023-02-25T23:13:53.897Z,100034.56
2023-02-25T23:16:55.384Z,100039.53
2023-02-25T23:20:00.247Z,100041.69
2023-02-25T23:23:04.859Z,100039.72
2023-02-25T23:26:08.381Z,100051.03
2023-02-25T23:29:12.682Z,100051.53
2023-02-25T23:32:14.693Z,100058.16
2023-02-25T23:35:16.589Z,100051.41
2023-02-25T23:38:18.794Z,100055.00
2023-02-25T23:41:20.901Z,100056.56
2023-02-25T23:44:24.399Z,100064.78
2023-02-25T23:47:26.396Z,100057.94
2023-02-25T23:50:28.306Z,100053.19
2023-02-25T23:53:30.208Z,100045.31
2023-02-25T23:56:33.030Z,100056.38
2023-02-25T23:59:36.165Z,100049.53
